createdAt,value
2019-03-06T00:00:32.711Z,54.70
2019-03-06T00:05:29.733Z,57.22
2019-03-06T00:10:31.594Z,58.21
2019-03-06T00:15:29.970Z,59.04
2019-03-06T00:20:27.071Z,59.67
2019-03-06T00:25:24.116Z,60.20
2019-03-06T00:30:21.288Z,60.31
2019-03-06T00:35:27.410Z,60.14
2019-03-06T00:40:42.947Z,59.71
2019-03-06T00:45:40.059Z,59.85
2019-03-06T00:50:37.217Z,60.55
2019-03-06T00:55:34.264Z,60.75
2019-03-06T01:00:35.605Z,59.85
2019-03-06T01:05:32.677Z,60.07
2019-03-06T01:10:30.822Z,60.32
2019-03-06T01:15:27.903Z,60.55
2019-03-06T01:20:25.032Z,60.56
2019-03-06T01:25:24.264Z,60.51
2019-03-06T01:30:24.524Z,60.09
2019-03-06T01:35:23.384Z,60.35
2019-03-06T01:40:22.304Z,60.51
2019-03-06T01:45:19.564Z,59.94
2019-03-06T01:50:16.670Z,59.71
2019-03-06T01:55:13.936Z,60.49
2019-03-06T02:00:15.673Z,60.88
2019-03-06T02:05:12.752Z,60.39
2019-03-06T02:10:12.878Z,60.67
2019-03-06T02:15:16.279Z,60.48
2019-03-06T02:20:19.160Z,60.29
2019-03-06T02:25:16.126Z,60.87
2019-03-06T02:30:18.126Z,60.36
2019-03-06T02:35:16.126Z,60.06
2019-03-06T02:40:13.242Z,60.09
2019-03-06T02:45:16.947Z,60.22
2019-03-06T02:50:18.045Z,60.23
2019-03-06T02:55:16.705Z,60.58
2019-03-06T03:00:19.998Z,60.58
2019-03-06T03:05:19.076Z,60.25
2019-03-06T03:10:16.192Z,60.40
2019-03-06T03:15:13.252Z,60.18
2019-03-06T03:20:10.483Z,60.20
2019-03-06T03:25:07.751Z,60.14
2019-03-06T03:30:10.001Z,59.40
2019-03-06T03:35:07.201Z,59.30
2019-03-06T03:40:10.154Z,59.11
2019-03-06T03:45:11.433Z,58.42
2019-03-06T03:50:09.453Z,58.62
2019-03-06T03:55:15.472Z,58.57
2019-03-06T04:00:21.158Z,58.50
2019-03-06T04:05:18.250Z,58.97
2019-03-06T04:10:15.514Z,58.59
2019-03-06T04:15:15.838Z,58.81
2019-03-06T04:20:14.469Z,58.48
2019-03-06T04:25:11.767Z,58.41
2019-03-06T04:30:16.857Z,58.61
2019-03-06T04:35:13.894Z,58.94
2019-03-06T04:40:13.392Z,58.77
2019-03-06T04:45:15.107Z,58.80
2019-03-06T04:50:15.399Z,59.02
2019-03-06T04:55:14.071Z,58.56
2019-03-06T05:00:19.391Z,58.95
2019-03-06T05:05:16.444Z,58.51
2019-03-06T05:10:13.746Z,57.75
2019-03-06T05:15:15.492Z,57.93
2019-03-06T05:20:12.649Z,58.18
2019-03-06T05:25:09.624Z,58.51
2019-03-06T05:30:12.911Z,58.59
2019-03-06T05:35:24.405Z,58.96
2019-03-06T05:40:21.757Z,59.04
2019-03-06T05:45:18.782Z,58.50
2019-03-06T05:50:15.775Z,58.98
2019-03-06T05:55:12.873Z,58.76
2019-03-06T06:00:16.449Z,57.94
2019-03-06T06:05:13.536Z,57.80
2019-03-06T06:10:15.229Z,57.85
2019-03-06T06:15:14.090Z,57.76
2019-03-06T06:20:13.439Z,57.48
2019-03-06T06:25:10.392Z,57.77
2019-03-06T06:30:10.502Z,57.97
2019-03-06T06:35:10.971Z,58.37
2019-03-06T06:40:13.139Z,58.61
2019-03-06T06:45:17.793Z,58.85
2019-03-06T06:50:16.900Z,58.30
2019-03-06T06:55:31.651Z,57.97
2019-03-06T07:01:00.133Z,57.87
2019-03-06T07:06:01.887Z,57.90
2019-03-06T07:11:16.558Z,56.84
2019-03-06T07:16:18.251Z,56.97
2019-03-06T07:21:21.903Z,56.76
2019-03-06T07:26:35.118Z,56.02
2019-03-06T07:31:36.615Z,54.86
2019-03-06T07:36:44.554Z,54.59
2019-03-06T07:41:43.320Z,54.39
2019-03-06T07:46:50.715Z,54.12
2019-03-06T07:52:06.212Z,53.48
2019-03-06T07:57:09.781Z,52.95
2019-03-06T08:02:38.480Z,52.52
2019-03-06T08:07:35.406Z,52.75
2019-03-06T08:12:34.344Z,51.73
2019-03-06T08:17:51.474Z,51.61
2019-03-06T08:22:55.450Z,51.42
2019-03-06T08:27:52.912Z,50.18
2019-03-06T08:32:52.108Z,50.21
2019-03-06T08:37:49.135Z,50.02
2019-03-06T08:42:46.288Z,50.44
2019-03-06T08:47:51.659Z,49.83
2019-03-06T08:52:50.534Z,48.64
2019-03-06T08:57:50.211Z,46.58
2019-03-06T09:03:04.414Z,48.60
2019-03-06T09:08:28.621Z,44.42
2019-03-06T09:13:36.468Z,44.56
2019-03-06T09:18:35.479Z,42.64
2019-03-06T09:23:34.489Z,43.99
2019-03-06T09:28:44.297Z,44.94
2019-03-06T09:33:45.967Z,40.49
2019-03-06T09:38:42.797Z,38.27
2019-03-06T09:43:51.142Z,38.61
2019-03-06T09:48:54.562Z,38.87
2019-03-06T09:53:53.510Z,36.83
2019-03-06T09:59:03.144Z,35.10
2019-03-06T10:04:00.048Z,35.08
2019-03-06T10:08:58.869Z,35.25
2019-03-06T10:13:59.364Z,35.95
2019-03-06T10:19:09.585Z,32.52
2019-03-06T10:24:06.767Z,33.73
2019-03-06T10:29:04.156Z,35.44
2019-03-06T10:34:01.411Z,36.51
2019-03-06T10:38:58.479Z,35.20
2019-03-06T10:43:57.493Z,35.89
2019-03-06T10:48:54.656Z,35.54
2019-03-06T10:53:53.565Z,36.29
2019-03-06T10:58:53.124Z,35.65
2019-03-06T11:03:54.961Z,36.61
2019-03-06T11:08:52.049Z,34.35
2019-03-06T11:13:52.848Z,33.71
2019-03-06T11:18:49.902Z,35.33
2019-03-06T11:23:47.295Z,34.29
2019-03-06T11:28:44.357Z,32.00
2019-03-06T11:33:42.779Z,31.47
2019-03-06T11:38:39.824Z,31.21
2019-03-06T11:43:36.799Z,30.77
2019-03-06T11:48:33.812Z,30.94
2019-03-06T11:53:37.907Z,30.87
2019-03-06T11:58:34.949Z,31.93
2019-03-06T12:03:35.960Z,32.22
2019-03-06T12:08:33.061Z,32.00
2019-03-06T12:13:30.251Z,32.48
2019-03-06T12:18:27.466Z,32.55
2019-03-06T12:23:26.528Z,33.24
2019-03-06T12:28:25.526Z,33.37
2019-03-06T12:33:26.576Z,33.94
2019-03-06T12:38:25.588Z,33.73
2019-03-06T12:43:29.818Z,32.55
2019-03-06T12:48:27.230Z,32.23
2019-03-06T12:53:28.701Z,33.43
2019-03-06T12:58:26.088Z,33.80
2019-03-06T13:03:23.295Z,33.80
2019-03-06T13:08:20.495Z,33.67
2019-03-06T13:13:17.514Z,32.70
2019-03-06T13:18:16.757Z,33.97
2019-03-06T13:23:13.834Z,31.37
2019-03-06T13:28:12.960Z,31.77
2019-03-06T13:33:13.902Z,31.87
2019-03-06T13:38:16.482Z,29.95
2019-03-06T13:43:15.125Z,30.51
2019-03-06T13:48:12.255Z,28.18
2019-03-06T13:53:09.421Z,29.22
2019-03-06T13:58:06.968Z,28.98
2019-03-06T14:03:04.871Z,30.12
2019-03-06T14:08:02.648Z,30.16
2019-03-06T14:12:59.566Z,30.15
2019-03-06T14:17:56.638Z,28.73
2019-03-06T14:22:53.725Z,29.45
2019-03-06T14:27:51.426Z,27.99
2019-03-06T14:32:49.130Z,29.11
2019-03-06T14:37:46.186Z,29.35
2019-03-06T14:42:43.199Z,28.90
2019-03-06T14:47:40.879Z,28.14
2019-03-06T14:52:37.914Z,29.05
2019-03-06T14:57:34.928Z,27.87
2019-03-06T15:02:32.258Z,28.84
2019-03-06T15:07:29.928Z,28.90
2019-03-06T15:12:26.937Z,29.62
2019-03-06T15:17:24.256Z,28.86
2019-03-06T15:22:21.281Z,28.78
2019-03-06T15:27:19.435Z,29.12
2019-03-06T15:32:16.503Z,29.77
2019-03-06T15:37:13.765Z,30.32
2019-03-06T15:42:11.285Z,31.76
2019-03-06T15:47:08.459Z,31.92
2019-03-06T15:52:07.398Z,32.64
2019-03-06T15:57:07.050Z,32.78
2019-03-06T16:02:04.076Z,33.49
2019-03-06T16:07:02.620Z,34.25
2019-03-06T16:12:00.922Z,34.66
2019-03-06T16:16:59.286Z,34.86
2019-03-06T16:21:56.305Z,35.80
2019-03-06T16:26:54.100Z,35.43
2019-03-06T16:31:51.163Z,35.79
2019-03-06T16:36:48.329Z,35.46
2019-03-06T16:41:45.268Z,35.21
2019-03-06T16:46:42.262Z,35.90
2019-03-06T16:51:39.250Z,37.11
2019-03-06T16:56:36.310Z,37.28
2019-03-06T17:01:33.458Z,38.14
2019-03-06T17:06:30.650Z,38.29
2019-03-06T17:11:27.622Z,38.89
2019-03-06T17:16:25.982Z,39.07
2019-03-06T17:21:23.149Z,40.77
2019-03-06T17:26:20.783Z,41.32
2019-03-06T17:31:17.868Z,41.20
2019-03-06T17:36:15.026Z,41.86
2019-03-06T17:41:12.171Z,41.66
2019-03-06T17:46:10.575Z,42.88
2019-03-06T17:51:07.620Z,43.99
2019-03-06T17:56:04.697Z,43.62
2019-03-06T18:01:06.293Z,43.12
2019-03-06T18:06:07.312Z,43.76
2019-03-06T18:11:04.646Z,44.83
2019-03-06T18:16:01.709Z,45.87
2019-03-06T18:20:59.323Z,45.77
2019-03-06T18:25:58.364Z,45.46
2019-03-06T18:30:55.339Z,44.85
2019-03-06T18:35:52.441Z,46.09
2019-03-06T18:40:49.478Z,45.08
2019-03-06T18:45:46.486Z,46.46
2019-03-06T18:50:43.531Z,46.89
2019-03-06T18:55:40.664Z,47.36
2019-03-06T19:00:37.882Z,47.72
2019-03-06T19:05:36.967Z,46.13
2019-03-06T19:10:34.222Z,46.53
2019-03-06T19:15:31.299Z,45.79
2019-03-06T19:20:28.385Z,47.28
2019-03-06T19:25:26.367Z,46.63
2019-03-06T19:30:26.193Z,48.23
2019-03-06T19:35:25.552Z,46.65
2019-03-06T19:40:22.623Z,45.99
2019-03-06T19:45:24.821Z,45.20
2019-03-06T19:50:26.324Z,44.64
2019-03-06T19:55:23.495Z,45.84
2019-03-06T20:00:22.714Z,44.82
2019-03-06T20:05:20.849Z,44.54
2019-03-06T20:10:18.654Z,46.25
2019-03-06T20:15:18.313Z,47.07
2019-03-06T20:20:17.837Z,46.04
2019-03-06T20:25:17.211Z,46.53
2019-03-06T20:30:23.268Z,45.25
2019-03-06T20:35:22.297Z,44.21
2019-03-06T20:40:19.801Z,44.38
2019-03-06T20:45:17.982Z,44.38
2019-03-06T20:50:18.551Z,44.33
2019-03-06T20:55:16.096Z,44.18
2019-03-06T21:00:22.946Z,43.82
2019-03-06T21:05:20.127Z,44.58
2019-03-06T21:10:19.681Z,44.12
2019-03-06T21:15:23.326Z,44.55
2019-03-06T21:20:22.781Z,44.61
2019-03-06T21:25:20.897Z,44.81
2019-03-06T21:30:40.524Z,44.47
2019-03-06T21:35:37.724Z,44.50
2019-03-06T21:40:34.874Z,44.82
2019-03-06T21:45:33.738Z,44.90
2019-03-06T21:50:30.796Z,44.36
2019-03-06T21:55:31.190Z,44.95
2019-03-06T22:00:28.427Z,44.81
2019-03-06T22:05:25.587Z,45.57
2019-03-06T22:10:22.773Z,45.28
2019-03-06T22:15:21.253Z,45.09
2019-03-06T22:20:18.478Z,45.03
2019-03-06T22:25:17.760Z,45.50
2019-03-06T22:30:22.615Z,44.82
2019-03-06T22:35:19.999Z,45.52
2019-03-06T22:40:21.030Z,44.99
2019-03-06T22:45:19.815Z,44.46
2019-03-06T22:50:18.411Z,44.30
2019-03-06T22:55:19.460Z,44.39
2019-03-06T23:00:45.339Z,43.72
2019-03-06T23:05:42.523Z,43.94
2019-03-06T23:10:39.970Z,43.87
2019-03-06T23:15:38.926Z,43.23
2019-03-06T23:20:36.178Z,43.58
2019-03-06T23:25:33.316Z,43.24
2019-03-06T23:30:30.514Z,43.35
2019-03-06T23:35:27.650Z,42.83
2019-03-06T23:40:27.399Z,42.84
2019-03-06T23:45:24.532Z,42.71
2019-03-06T23:50:21.638Z,42.19
2019-03-06T23:55:18.688Z,42.86
